This is the latest recevied weather packets stored in our database for station/object W9KHP-1. If no packets are shown the sender has not sent any weather packets the latest 1 day(s).
| Time | Temp. | Humidity | Pressure | Rain* | Wind** | Luminosity | Snow |
|---|---|---|---|---|---|---|---|
| 1778025366 | 12.22° C | 99% | 1009.3 hPa | 0 mm | 0.89 m/s, 1° | 6 W/m² | - |
| 1778025063 | 12.78° C | 99% | 1009.3 hPa | 1.78 mm | 0.45 m/s, 342° | 4 W/m² | - |
| 1778024760 | 12.78° C | 99% | 1009.2 hPa | 1.78 mm | 0.45 m/s, 3° | 4 W/m² | - |
| 1778024456 | 12.78° C | 99% | 1009 hPa | 1.27 mm | 0.89 m/s, 36° | 6 W/m² | - |
| 1778024154 | 13.33° C | 99% | 1009.1 hPa | 3.05 mm | 0.89 m/s, 330° | 9 W/m² | - |
| 1778023851 | 13.33° C | 99% | 1009.1 hPa | 4.83 mm | 0 m/s | 10 W/m² | - |
| 1778023549 | 13.89° C | 99% | 1009.2 hPa | 7.11 mm | 0.45 m/s, 282° | 11 W/m² | - |
| 1778023246 | 15° C | 99% | 1009.1 hPa | 11.94 mm | 0.45 m/s, 348° | 9 W/m² | - |
| 1778022943 | 15° C | 99% | 1009.2 hPa | 10.67 mm | 0 m/s | 15 W/m² | - |
| 1778022642 | 16.11° C | 99% | 1009.2 hPa | 7.87 mm | 0.45 m/s, 351° | 5 W/m² | - |
| 1778022339 | 16.11° C | 99% | 1009 hPa | 6.1 mm | 0.45 m/s, 154° | 7 W/m² | - |
| 1778022035 | 16.11° C | 99% | 1008.9 hPa | 4.32 mm | 0 m/s | 8 W/m² | - |
| 1778021732 | 16.11° C | 99% | 1008.9 hPa | 4.83 mm | 0 m/s | 10 W/m² | - |
| 1778021428 | 16.11° C | 99% | 1009.1 hPa | 6.6 mm | 0 m/s | 12 W/m² | - |
| 1778021125 | 16.11° C | 99% | 1009 hPa | 4.32 mm | 0 m/s | 15 W/m² | - |
| 1778020822 | 16.11° C | 99% | 1009 hPa | 4.32 mm | 0 m/s | 19 W/m² | - |
| 1778020519 | 16.11° C | 99% | 1009 hPa | 4.83 mm | 0 m/s | 19 W/m² | - |
| 1778020216 | 16.11° C | 99% | 1008.8 hPa | 3.05 mm | 0 m/s | 15 W/m² | - |
| 1778019912 | 16.11° C | 99% | 1008.9 hPa | 3.05 mm | 0 m/s | 18 W/m² | - |
| 1778019608 | 16.11° C | 99% | 1008.8 hPa | 3.05 mm | 0 m/s | 26 W/m² | - |
| 1778019305 | 16.11° C | 99% | 1009 hPa | 4.32 mm | 0 m/s | 28 W/m² | - |
| 1778019002 | 16.11° C | 99% | 1009.2 hPa | 3.05 mm | 1.79 m/s, 225° | 30 W/m² | - |
| 1778018699 | 16.11° C | 99% | 1009.2 hPa | 4.83 mm | 0 m/s | 29 W/m² | - |
| 1778018396 | 16.11° C | 99% | 1009.3 hPa | 7.87 mm | 0 m/s | 31 W/m² | - |
| 1778018095 | 16.11° C | 99% | 1009.3 hPa | 6.1 mm | 0 m/s | 20 W/m² | - |
* Rain latest hour (hover to see other rain measurements)
** Current wind speed in m/s (hover to see current wind gust speed)